Time;durP1;ratioP1;P1;durP2;ratioP2;P2;SDS_P1;SDS_P2;PMS_P1;PMS_P2;Temp;Humidity;BMP_temperature;BMP_pressure;BME280_temperature;BME280_humidity;BME280_pressure;Samples;Min_cycle;Max_cycle;Signal;HPM_P1;HPM_P2
2021/06/11 00:01:30;;;;;;;25.42;15.25;;;;;;;18.12;73.59;101899.41;5063413;28;20047;-64
2021/06/11 00:03:55;;;;;;;25.38;14.88;;;;;;;18.15;73.42;101900.28;5064637;28;20028;-64
2021/06/11 00:06:20;;;;;;;25.35;14.63;;;;;;;18.25;72.71;101896.59;5062255;28;20032;-64
2021/06/11 00:08:46;;;;;;;24.20;14.35;;;;;;;18.29;72.34;101904.56;5065091;28;20420;-70
2021/06/11 00:11:11;;;;;;;25.88;14.35;;;;;;;18.31;72.23;101901.00;5062363;28;20082;-68
2021/06/11 00:13:36;;;;;;;26.77;14.57;;;;;;;18.19;73.35;101902.00;5063720;28;20025;-62
2021/06/11 00:16:02;;;;;;;26.63;14.40;;;;;;;18.12;73.12;101901.19;5063802;28;20032;-63
2021/06/11 00:18:27;;;;;;;26.17;14.63;;;;;;;17.99;74.35;101902.22;5062530;28;20017;-63
2021/06/11 00:20:53;;;;;;;27.15;15.15;;;;;;;17.84;74.67;101909.47;5065102;28;20044;-69
2021/06/11 00:23:19;;;;;;;29.08;15.60;;;;;;;17.66;76.00;101906.94;5061672;28;20067;-62
2021/06/11 00:25:45;;;;;;;26.52;15.35;;;;;;;17.64;76.03;101906.94;5064922;28;20028;-61
2021/06/11 00:28:10;;;;;;;29.05;15.05;;;;;;;17.62;76.42;101903.41;5062647;28;20363;-62
2021/06/11 00:30:36;;;;;;;26.27;14.98;;;;;;;17.55;77.70;101901.69;5063478;28;20017;-61
2021/06/11 00:33:01;;;;;;;25.92;14.95;;;;;;;17.55;77.50;101904.38;5063440;28;20021;-64
2021/06/11 00:35:27;;;;;;;27.25;15.23;;;;;;;17.51;77.53;101914.19;5061056;28;20036;-64
2021/06/11 00:37:52;;;;;;;26.08;14.95;;;;;;;17.46;77.47;101908.00;5064579;28;20043;-62
2021/06/11 00:40:18;;;;;;;26.55;14.88;;;;;;;17.47;77.66;101911.53;5061396;28;20074;-62
2021/06/11 00:42:43;;;;;;;27.63;14.43;;;;;;;17.48;77.60;101908.84;5064215;28;20032;-62
2021/06/11 00:45:10;;;;;;;25.60;14.85;;;;;;;17.50;76.21;101911.50;5062094;28;20104;-65
2021/06/11 00:47:36;;;;;;;26.08;14.40;;;;;;;17.47;76.10;101903.53;5063088;28;20051;-62
2021/06/11 00:50:02;;;;;;;26.30;14.73;;;;;;;17.48;76.00;101907.97;5063442;28;20020;-64
2021/06/11 00:52:31;;;;;;;25.08;14.88;;;;;;;17.46;77.02;101920.44;5061897;28;20025;-68
2021/06/11 00:54:56;;;;;;;24.75;14.43;;;;;;;17.47;76.68;101911.53;5063966;28;20154;-68
2021/06/11 00:57:21;;;;;;;23.75;14.18;;;;;;;17.43;76.64;101906.22;5061263;28;20100;-64
2021/06/11 00:59:47;;;;;;;24.60;14.50;;;;;;;17.46;76.75;101909.75;5056689;28;20476;-65
2021/06/11 01:02:15;;;;;;;24.77;13.90;;;;;;;17.34;77.18;101903.59;5063344;28;20031;-64
2021/06/11 01:04:40;;;;;;;22.98;12.98;;;;;;;17.26;77.59;101905.44;5061716;28;20541;-64
2021/06/11 01:07:06;;;;;;;23.92;13.27;;;;;;;17.17;77.57;101894.81;5062503;28;20064;-64
2021/06/11 01:09:36;;;;;;;23.70;13.18;;;;;;;17.11;78.10;101903.78;5063106;28;20103;-64
2021/06/11 01:12:02;;;;;;;24.65;13.23;;;;;;;17.10;78.35;101893.97;5062390;28;20037;-64
2021/06/11 01:14:27;;;;;;;23.95;13.23;;;;;;;17.16;78.34;101909.09;5063347;28;20017;-64
2021/06/11 01:16:52;;;;;;;23.65;12.65;;;;;;;17.21;77.85;101904.59;5061022;28;20029;-63
2021/06/11 01:19:25;;;;;;;23.73;13.20;;;;;;;17.15;77.98;101901.97;5064159;28;20047;-64
2021/06/11 01:22:02;;;;;;;23.23;12.48;;;;;;;17.19;76.88;101909.06;5056994;28;20025;-64
2021/06/11 01:24:32;;;;;;;25.58;13.13;;;;;;;17.08;78.51;101911.78;5057256;28;20396;-68
2021/06/11 01:26:59;;;;;;;23.08;12.55;;;;;;;16.98;78.88;101908.28;5062226;28;20029;-67
2021/06/11 01:29:27;;;;;;;23.27;12.10;;;;;;;16.94;78.57;101906.53;5059594;28;20112;-63
2021/06/11 01:31:58;;;;;;;22.67;11.27;;;;;;;17.01;78.57;101904.72;5064013;28;20024;-65
2021/06/11 01:34:31;;;;;;;22.98;12.30;;;;;;;16.84;79.73;101902.97;5060646;28;20120;-65
2021/06/11 01:37:23;;;;;;;24.17;12.25;;;;;;;16.69;80.22;101903.94;5063708;28;20107;-64
2021/06/11 01:39:53;;;;;;;23.55;12.68;;;;;;;16.61;80.98;101907.53;5056717;28;20040;-65
2021/06/11 01:42:18;;;;;;;23.50;12.48;;;;;;;16.46;82.14;101906.69;5056559;28;20021;-67
2021/06/11 01:44:45;;;;;;;25.00;12.50;;;;;;;16.37;82.80;101910.28;5063454;28;20031;-64
2021/06/11 01:47:13;;;;;;;25.70;12.77;;;;;;;16.30;83.33;101900.53;5061672;28;20073;-62
2021/06/11 01:49:42;;;;;;;25.58;12.70;;;;;;;16.24;83.87;101900.53;5062786;28;20476;-68
2021/06/11 01:52:08;;;;;;;24.65;12.65;;;;;;;16.16;85.25;101902.31;5061915;28;20028;-68
2021/06/11 01:54:35;;;;;;;25.30;13.32;;;;;;;16.06;86.26;101901.44;5061756;28;20040;-68
2021/06/11 01:57:02;;;;;;;25.60;12.48;;;;;;;15.96;87.82;101903.25;5063145;28;20078;-68
2021/06/11 01:59:28;;;;;;;25.63;12.90;;;;;;;15.93;87.92;101905.03;5060912;28;20021;-62
2021/06/11 02:01:55;;;;;;;24.65;13.10;;;;;;;16.04;87.44;101901.44;5063783;28;20070;-62
2021/06/11 02:04:21;;;;;;;24.52;12.57;;;;;;;16.12;86.72;101896.13;5060757;28;20078;-68
2021/06/11 02:06:48;;;;;;;24.13;12.88;;;;;;;16.21;85.99;101889.88;5063575;28;20017;-62
2021/06/11 02:09:14;;;;;;;24.67;13.50;;;;;;;16.15;85.91;101889.88;5060607;28;20391;-64
2021/06/11 02:11:41;;;;;;;25.15;12.82;;;;;;;16.29;85.14;101887.19;5062678;28;20021;-68
2021/06/11 02:14:11;;;;;;;24.58;13.25;;;;;;;16.25;85.63;101889.00;5065343;28;20043;-68
2021/06/11 02:16:37;;;;;;;25.00;13.63;;;;;;;16.18;85.83;101890.78;5065710;28;20391;-67
2021/06/11 02:19:03;;;;;;;25.05;12.55;;;;;;;16.29;84.58;101893.41;5066179;28;20029;-69
2021/06/11 02:21:29;;;;;;;24.65;13.02;;;;;;;16.27;85.09;101889.84;5064432;28;20036;-68
2021/06/11 02:23:55;;;;;;;24.83;13.13;;;;;;;16.23;84.91;101888.09;5066925;28;20123;-68
2021/06/11 02:26:22;;;;;;;25.90;13.65;;;;;;;16.16;85.67;101887.22;5063933;28;20047;-67
2021/06/11 02:28:51;;;;;;;25.05;13.50;;;;;;;16.15;85.59;101887.22;5067180;28;20032;-69
2021/06/11 02:31:16;;;;;;;26.23;13.38;;;;;;;16.01;87.24;101885.47;5064101;28;20071;-69
2021/06/11 02:33:42;;;;;;;25.70;13.57;;;;;;;16.08;86.16;101880.16;5066354;28;20411;-70
2021/06/11 02:36:07;;;;;;;25.10;13.35;;;;;;;16.09;85.89;101884.56;5064987;28;20036;-69
2021/06/11 02:38:33;;;;;;;25.80;13.50;;;;;;;16.00;85.79;101877.47;5064602;28;20029;-63
2021/06/11 02:40:58;;;;;;;25.63;13.77;;;;;;;15.93;86.02;101883.69;5066500;28;20046;-63
2021/06/11 02:43:25;;;;;;;25.88;13.52;;;;;;;15.94;86.25;101875.69;5063455;28;20029;-64
2021/06/11 02:45:51;;;;;;;24.75;13.82;;;;;;;15.89;86.43;101885.50;5067075;28;20028;-64
2021/06/11 02:48:31;;;;;;;25.42;13.73;;;;;;;15.86;86.38;101882.84;5063534;28;20522;-63
2021/06/11 02:51:11;;;;;;;25.50;13.75;;;;;;;15.83;86.55;101877.50;5060494;28;20029;-64
2021/06/11 02:53:40;;;;;;;24.30;13.05;;;;;;;15.88;86.53;101877.50;5065062;28;20055;-63
2021/06/11 02:56:09;;;;;;;26.35;14.55;;;;;;;15.83;87.92;101881.06;5064987;28;20029;-63
2021/06/11 02:58:58;;;;;;;26.98;15.23;;;;;;;15.78;87.34;101871.25;5065380;28;20024;-64
2021/06/11 03:01:24;;;;;;;25.95;13.93;;;;;;;15.82;87.50;101863.28;5059592;28;20086;-63
2021/06/11 03:03:51;;;;;;;26.95;14.75;;;;;;;15.83;88.65;101861.53;5058916;28;20071;-63
2021/06/11 03:06:19;;;;;;;25.67;13.95;;;;;;;15.66;89.16;101859.69;5066089;28;20079;-63
2021/06/11 03:08:48;;;;;;;26.52;14.50;;;;;;;15.62;90.71;101862.38;5063467;28;20025;-63
2021/06/11 03:11:19;;;;;;;27.48;14.70;;;;;;;15.54;91.25;101864.16;5065770;28;20032;-63
2021/06/11 03:13:46;;;;;;;26.17;14.50;;;;;;;15.52;91.81;101861.47;5063639;28;20079;-63
2021/06/11 03:16:12;;;;;;;25.88;14.10;;;;;;;15.52;91.48;101856.16;5065071;28;20464;-63
2021/06/11 03:18:52;;;;;;;27.35;14.82;;;;;;;15.50;91.09;101850.81;5064474;28;20021;-63
2021/06/11 03:21:25;;;;;;;25.00;14.05;;;;;;;15.49;90.85;101857.06;5065912;28;20471;-63
2021/06/11 03:24:05;;;;;;;25.63;14.50;;;;;;;15.51;89.69;101852.59;5058271;28;20032;-68
2021/06/11 03:26:40;;;;;;;26.75;14.45;;;;;;;15.48;90.45;101849.94;5061271;28;20032;-68
2021/06/11 03:29:09;;;;;;;25.88;14.43;;;;;;;15.62;90.24;101843.72;5064414;28;20056;-69
2021/06/11 03:31:41;;;;;;;27.33;15.05;;;;;;;15.61;90.83;101840.19;5064261;28;20100;-71
2021/06/11 03:34:09;;;;;;;;;;;;;;;15.60;85.07;101842.84;5064477;28;20430;-69
2021/06/11 03:36:39;;;;;;;27.55;14.93;;;;;;;15.49;92.43;101845.50;5063789;28;19994;-68
2021/06/11 03:39:07;;;;;;;26.60;14.55;;;;;;;15.45;92.96;101846.38;5064255;28;20025;-68
2021/06/11 03:41:34;;;;;;;28.05;15.35;;;;;;;15.42;93.15;101839.31;5063538;28;20107;-68
2021/06/11 03:44:02;;;;;;;29.60;15.52;;;;;;;15.44;93.51;101839.28;5065170;28;20036;-69
2021/06/11 03:46:31;;;;;;;29.25;16.80;;;;;;;15.31;94.77;101836.63;5062728;28;20044;-69
2021/06/11 03:48:58;;;;;;;28.45;16.30;;;;;;;15.19;95.99;101836.63;5065143;28;20036;-68
2021/06/11 03:51:26;;;;;;;29.27;16.95;;;;;;;15.11;98.12;101841.03;5062077;28;20036;-69
2021/06/11 03:53:53;;;;;;;29.80;17.40;;;;;;;14.96;100.00;101840.13;5058496;28;20052;-69
2021/06/11 03:56:20;;;;;;;30.98;18.33;;;;;;;14.95;100.00;101835.69;5065676;28;20029;-69
2021/06/11 03:58:47;;;;;;;30.13;18.65;;;;;;;14.99;100.00;101831.25;5062279;28;20025;-69
2021/06/11 04:01:20;;;;;;;30.02;18.50;;;;;;;14.92;100.00;101833.00;5064597;28;20108;-69
2021/06/11 04:03:45;;;;;;;31.13;18.48;;;;;;;14.89;100.00;101833.00;5062468;28;20033;-68
2021/06/11 04:06:14;;;;;;;29.67;17.83;;;;;;;14.90;100.00;101834.78;5064133;28;20024;-68
2021/06/11 04:08:40;;;;;;;32.25;18.35;;;;;;;14.92;100.00;101833.00;5062646;28;20032;-64
2021/06/11 04:11:11;;;;;;;34.22;20.08;;;;;;;14.97;100.00;101835.72;5063157;28;20025;-69
2021/06/11 04:13:46;;;;;;;31.42;18.88;;;;;;;15.10;99.77;101836.59;5063532;28;20041;-68
2021/06/11 04:16:18;;;;;;;31.30;19.10;;;;;;;15.05;100.00;101843.69;5064151;28;20039;-65
2021/06/11 04:18:45;;;;;;;32.45;19.95;;;;;;;15.00;100.00;101838.38;5062135;28;20066;-66
2021/06/11 04:21:18;;;;;;;32.38;19.42;;;;;;;14.97;100.00;101836.59;5063874;28;20025;-63
2021/06/11 04:23:44;;;;;;;33.13;20.23;;;;;;;15.02;100.00;101839.25;5062129;28;20588;-68
2021/06/11 04:26:12;;;;;;;35.60;20.75;;;;;;;14.99;100.00;101842.78;5063516;28;20040;-64
2021/06/11 04:28:38;;;;;;;33.35;19.88;;;;;;;15.10;100.00;101848.16;5062853;28;20012;-66
2021/06/11 04:31:04;;;;;;;32.92;20.65;;;;;;;15.09;100.00;101856.13;5062561;28;20075;-68
2021/06/11 04:33:30;;;;;;;35.25;21.67;;;;;;;14.96;100.00;101865.88;5063972;28;20031;-69
2021/06/11 04:35:56;;;;;;;34.97;21.77;;;;;;;14.94;100.00;101878.28;5060386;28;20472;-68
2021/06/11 04:38:22;;;;;;;34.83;21.42;;;;;;;15.10;100.00;101888.09;5064741;28;20038;-67
2021/06/11 04:40:50;;;;;;;33.72;20.88;;;;;;;15.20;100.00;101880.13;5061558;28;20024;-68
2021/06/11 04:43:17;;;;;;;35.47;22.13;;;;;;;15.18;100.00;101882.78;5063843;28;20058;-62
2021/06/11 04:45:42;;;;;;;35.42;22.45;;;;;;;15.23;100.00;101878.34;5062505;28;20029;-62
2021/06/11 04:48:08;;;;;;;34.72;22.20;;;;;;;15.37;100.00;101882.81;5062646;28;20420;-62
2021/06/11 04:50:33;;;;;;;36.30;23.17;;;;;;;15.32;100.00;101875.69;5063288;28;20060;-64
2021/06/11 04:53:00;;;;;;;35.95;23.65;;;;;;;15.33;100.00;101877.47;5061805;28;20069;-63
2021/06/11 04:55:25;;;;;;;36.72;24.33;;;;;;;15.25;100.00;101873.91;5064520;28;20052;-63
2021/06/11 04:57:52;;;;;;;35.97;23.17;;;;;;;15.30;100.00;101880.16;5061078;28;20079;-63
2021/06/11 05:00:18;;;;;;;39.25;25.08;;;;;;;15.27;100.00;101874.78;5064011;28;20029;-62
2021/06/11 05:02:43;;;;;;;40.05;25.50;;;;;;;15.25;100.00;101876.56;5061500;28;20460;-63
2021/06/11 05:05:09;;;;;;;38.63;26.30;;;;;;;15.26;100.00;101878.34;5063166;28;20031;-63
2021/06/11 05:07:36;;;;;;;36.67;24.80;;;;;;;15.46;100.00;101890.78;5062824;28;20032;-67
2021/06/11 05:10:06;;;;;;;37.92;26.48;;;;;;;15.45;100.00;101897.00;5061519;28;20040;-63
2021/06/11 05:12:32;;;;;;;39.47;27.50;;;;;;;15.63;100.00;101893.47;5062974;28;20027;-63
2021/06/11 05:14:57;;;;;;;37.17;25.02;;;;;;;15.74;100.00;101886.38;5061345;28;20040;-63
2021/06/11 05:17:23;;;;;;;38.28;25.75;;;;;;;15.92;99.09;101892.63;5064156;28;20483;-63
2021/06/11 05:19:48;;;;;;;38.22;25.40;;;;;;;16.06;97.77;101890.78;5057654;28;20355;-62
2021/06/11 05:22:13;;;;;;;36.80;25.08;;;;;;;16.17;97.50;101890.78;5056071;28;20025;-62
2021/06/11 05:24:39;;;;;;;35.75;23.27;;;;;;;16.27;96.38;101879.19;5054569;28;20033;-62
2021/06/11 05:27:05;;;;;;;35.17;22.80;;;;;;;16.41;95.34;101896.94;5062322;28;20036;-62
2021/06/11 05:29:30;;;;;;;34.95;21.02;;;;;;;16.52;94.15;101892.44;5059133;28;20021;-62
2021/06/11 05:31:55;;;;;;;35.22;20.70;;;;;;;16.50;96.67;101896.91;5064025;28;20357;-62
2021/06/11 05:34:21;;;;;;;33.80;20.10;;;;;;;16.55;96.81;101892.44;5060629;28;20055;-63
2021/06/11 05:36:46;;;;;;;33.90;19.98;;;;;;;16.62;97.31;101890.66;5060008;28;20556;-65
2021/06/11 05:39:11;;;;;;;32.10;18.40;;;;;;;16.69;93.50;101881.72;5053595;28;20037;-62
2021/06/11 05:41:37;;;;;;;33.50;18.15;;;;;;;16.71;95.00;101894.13;5059169;28;20021;-63
2021/06/11 05:44:03;;;;;;;32.72;17.60;;;;;;;16.70;94.59;101903.06;5059693;28;20420;-62
2021/06/11 05:46:28;;;;;;;32.72;17.55;;;;;;;16.70;94.62;101903.06;5057151;28;20083;-64
2021/06/11 05:48:53;;;;;;;29.48;16.13;;;;;;;16.83;92.27;101894.97;5062616;28;20097;-63
2021/06/11 05:51:19;;;;;;;30.33;16.35;;;;;;;16.76;93.87;101902.16;5061542;28;20025;-63
2021/06/11 05:53:44;;;;;;;28.92;16.15;;;;;;;16.72;92.70;101895.91;5061743;28;20040;-64
2021/06/11 05:56:09;;;;;;;28.02;14.23;;;;;;;16.78;92.93;101897.69;5060363;28;20072;-62
2021/06/11 05:58:35;;;;;;;28.80;15.00;;;;;;;16.76;92.50;101906.56;5065306;28;20024;-63
2021/06/11 06:01:01;;;;;;;29.65;15.07;;;;;;;16.78;93.83;101896.81;5060186;28;20035;-63
2021/06/11 06:03:27;;;;;;;29.30;15.52;;;;;;;16.69;92.92;101900.41;5059469;28;20391;-63
2021/06/11 06:05:52;;;;;;;31.27;16.20;;;;;;;16.68;94.19;101903.94;5059983;28;20104;-64
2021/06/11 06:08:18;;;;;;;31.27;17.38;;;;;;;16.74;95.18;101906.59;5062792;28;20020;-64
2021/06/11 06:10:43;;;;;;;29.27;15.55;;;;;;;16.84;93.17;101902.09;5059555;28;20115;-63
2021/06/11 06:13:09;;;;;;;30.95;16.80;;;;;;;16.95;92.19;101902.06;5060692;28;20044;-62
2021/06/11 06:15:34;;;;;;;30.55;15.98;;;;;;;17.03;92.33;101908.25;5060125;28;20047;-63
2021/06/11 06:17:59;;;;;;;31.15;16.95;;;;;;;17.14;91.80;101898.41;5059894;28;20033;-62
2021/06/11 06:20:25;;;;;;;31.85;15.82;;;;;;;17.18;89.87;101893.91;5060651;28;20077;-61
2021/06/11 06:22:50;;;;;;;35.63;18.63;;;;;;;17.07;90.62;101899.34;5061939;28;20036;-62
2021/06/11 06:25:16;;;;;;;38.72;24.33;;;;;;;17.01;89.54;101902.94;5059275;28;20072;-63
2021/06/11 06:27:42;;;;;;;36.67;22.55;;;;;;;16.92;92.30;101888.72;5061896;28;20071;-62
2021/06/11 06:30:10;;;;;;;38.63;24.48;;;;;;;16.92;91.64;101897.66;5059979;28;20033;-62
2021/06/11 06:32:36;;;;;;;37.95;23.00;;;;;;;16.92;92.15;101899.41;5059614;28;20138;-61
2021/06/11 06:35:02;;;;;;;35.85;21.63;;;;;;;17.07;92.84;101907.34;5056079;28;20134;-62
2021/06/11 06:37:28;;;;;;;34.45;21.42;;;;;;;17.03;91.50;101897.59;5060760;28;20112;-62
2021/06/11 06:39:54;;;;;;;34.15;21.48;;;;;;;17.17;92.57;101908.16;5059266;28;20116;-63
2021/06/11 06:42:19;;;;;;;34.03;21.13;;;;;;;17.31;90.39;101903.63;5059002;28;20029;-65
2021/06/11 06:44:45;;;;;;;34.03;20.15;;;;;;;17.35;89.09;101899.16;5059588;28;20029;-61
2021/06/11 06:47:10;;;;;;;31.05;18.65;;;;;;;17.54;87.62;101910.59;5061923;28;20024;-68
2021/06/11 06:49:37;;;;;;;35.05;21.05;;;;;;;17.63;88.09;101906.97;5058828;28;20045;-67
2021/06/11 06:52:03;;;;;;;33.25;19.83;;;;;;;17.66;87.63;101905.13;5060893;28;20037;-65
2021/06/11 06:54:28;;;;;;;31.42;19.05;;;;;;;17.77;85.41;101911.28;5057778;28;20589;-67
2021/06/11 06:56:54;;;;;;;32.85;19.52;;;;;;;17.94;87.55;101908.50;5060456;28;20032;-67
2021/06/11 06:59:22;;;;;;;32.58;19.65;;;;;;;18.06;85.95;101903.94;5061002;28;20477;-64
2021/06/11 07:01:48;;;;;;;31.40;17.98;;;;;;;18.16;83.20;101905.63;5061000;28;20472;-66
2021/06/11 07:04:14;;;;;;;32.55;20.40;;;;;;;18.24;84.34;101914.44;5063172;28;20029;-68
2021/06/11 07:06:39;;;;;;;32.03;19.10;;;;;;;18.29;80.37;101901.91;5065775;28;20032;-67
2021/06/11 07:09:07;;;;;;;34.22;21.48;;;;;;;18.34;81.61;101898.28;5064593;28;20020;-67
2021/06/11 07:11:32;;;;;;;35.20;21.80;;;;;;;18.42;80.52;101891.03;5060507;28;20023;-66
2021/06/11 07:13:58;;;;;;;35.33;23.95;;;;;;;18.56;80.24;101904.28;5064122;28;20020;-67
2021/06/11 07:16:23;;;;;;;36.67;24.45;;;;;;;18.66;79.98;101902.38;5061887;28;20032;-67
2021/06/11 07:18:48;;;;;;;35.05;24.02;;;;;;;18.69;78.28;101907.69;5063447;28;20024;-69
2021/06/11 07:21:14;;;;;;;34.83;23.63;;;;;;;18.70;79.32;101898.72;5060250;28;20029;-69
2021/06/11 07:23:41;;;;;;;36.53;25.58;;;;;;;18.82;80.03;101902.13;5059960;28;20029;-68
2021/06/11 07:26:07;;;;;;;33.75;21.48;;;;;;;18.89;76.08;101905.66;5062287;28;20028;-69
2021/06/11 07:28:37;;;;;;;34.35;23.52;;;;;;;18.85;76.11;101906.56;5064940;28;20025;-68
2021/06/11 07:31:04;;;;;;;32.83;21.42;;;;;;;18.96;77.99;101909.13;5063089;28;20020;-69
2021/06/11 07:33:29;;;;;;;31.95;20.33;;;;;;;18.97;74.35;101910.91;5064265;28;20028;-69
2021/06/11 07:35:56;;;;;;;34.65;22.33;;;;;;;19.03;76.18;101917.97;5063898;28;20020;-68
2021/06/11 07:38:22;;;;;;;32.20;19.95;;;;;;;19.12;74.79;101913.38;5062932;28;20021;-68
2021/06/11 07:40:49;;;;;;;30.48;19.35;;;;;;;19.26;76.50;101915.84;5064933;28;20505;-64
2021/06/11 07:43:15;;;;;;;31.42;20.17;;;;;;;19.45;75.30;101927.16;5062212;28;20040;-64
2021/06/11 07:45:40;;;;;;;32.38;20.05;;;;;;;19.54;74.68;101918.09;5065861;28;20096;-64
2021/06/11 07:48:06;;;;;;;28.17;17.13;;;;;;;19.65;72.50;101920.63;5062491;28;20049;-64
2021/06/11 07:50:31;;;;;;;29.95;17.63;;;;;;;19.69;71.65;101916.97;5064225;28;20043;-64
2021/06/11 07:52:57;;;;;;;29.67;17.73;;;;;;;19.78;71.52;101919.53;5063908;28;20036;-64
2021/06/11 07:55:22;;;;;;;29.67;17.38;;;;;;;19.90;72.93;101914.88;5063040;28;20039;-63
2021/06/11 07:57:47;;;;;;;28.55;16.42;;;;;;;20.08;70.65;101919.91;5064705;28;20025;-63
2021/06/11 08:00:13;;;;;;;27.80;16.10;;;;;;;20.16;70.24;101914.38;5061979;28;20116;-63
2021/06/11 08:02:40;;;;;;;26.50;14.43;;;;;;;20.32;70.85;101906.94;5064946;28;20108;-64
2021/06/11 08:05:07;;;;;;;26.20;14.07;;;;;;;20.46;69.75;101909.31;5062179;28;20078;-64
2021/06/11 08:07:32;;;;;;;26.20;14.90;;;;;;;20.44;68.43;101917.41;5064398;28;20476;-64
2021/06/11 08:09:58;;;;;;;25.58;14.18;;;;;;;20.40;66.79;101910.31;5062944;28;20028;-64
2021/06/11 08:12:29;;;;;;;26.15;14.68;;;;;;;20.51;67.69;101910.13;5062499;28;20028;-64
2021/06/11 08:14:54;;;;;;;27.13;16.13;;;;;;;20.46;67.81;101901.25;5063817;28;20021;-64
2021/06/11 08:17:19;;;;;;;26.30;15.93;;;;;;;20.47;66.20;101909.28;5062075;28;20070;-64
2021/06/11 08:19:44;;;;;;;26.30;14.63;;;;;;;20.79;67.65;101898.84;5064861;28;20077;-64
2021/06/11 08:22:10;;;;;;;27.00;15.70;;;;;;;20.97;65.61;101900.22;5061851;28;20025;-64
2021/06/11 08:24:35;;;;;;;27.27;18.10;;;;;;;20.89;64.85;101908.47;5063376;28;20040;-64
2021/06/11 08:27:01;;;;;;;28.00;17.50;;;;;;;21.13;65.25;101912.41;5062882;28;20404;-64
2021/06/11 08:29:26;;;;;;;27.92;17.95;;;;;;;21.15;64.74;101915.06;5063362;28;20033;-63
2021/06/11 08:31:52;;;;;;;28.42;18.92;;;;;;;21.06;64.27;101922.41;5063902;28;20031;-63
2021/06/11 08:34:17;;;;;;;29.67;20.77;;;;;;;21.09;63.32;101918.78;5061693;28;20033;-67
2021/06/11 08:36:43;;;;;;;30.15;19.58;;;;;;;21.07;64.22;101925.97;5065143;28;20025;-67
2021/06/11 08:39:09;;;;;;;32.75;22.67;;;;;;;21.14;63.91;101930.28;5061307;28;20033;-68
2021/06/11 08:41:34;;;;;;;33.20;22.50;;;;;;;21.15;65.19;101924.00;5060127;28;20036;-62
2021/06/11 08:43:59;;;;;;;33.40;23.63;;;;;;;21.14;65.47;101919.53;5057198;28;20048;-61
2021/06/11 08:46:27;;;;;;;35.30;24.15;;;;;;;21.28;63.17;101910.28;5058392;28;20029;-63
2021/06/11 08:48:53;;;;;;;36.47;24.10;;;;;;;21.30;63.07;101916.50;5057480;28;20102;-61
2021/06/11 08:51:18;;;;;;;34.00;20.08;;;;;;;21.33;62.84;101917.28;5054809;28;20028;-61
2021/06/11 08:53:46;;;;;;;31.48;21.17;;;;;;;21.41;62.45;101918.00;5058025;28;20491;-61
2021/06/11 08:56:11;;;;;;;35.28;23.60;;;;;;;21.47;61.43;101921.47;5060362;28;20043;-61
2021/06/11 08:58:40;;;;;;;36.55;23.48;;;;;;;21.53;61.49;101914.16;5055945;28;20025;-61
2021/06/11 09:01:07;;;;;;;35.67;22.35;;;;;;;21.86;61.65;101911.56;5058989;28;20475;-61
2021/06/11 09:03:42;;;;;;;36.10;21.42;;;;;;;22.06;60.76;101915.50;5063319;28;20032;-60
2021/06/11 09:06:12;;;;;;;32.85;19.08;;;;;;;22.45;60.24;101904.59;5056121;28;20021;-61
2021/06/11 09:08:40;;;;;;;34.67;21.75;;;;;;;22.77;58.15;101909.03;5057608;28;20480;-62
2021/06/11 09:11:12;;;;;;;34.63;23.05;;;;;;;22.74;58.43;101909.13;5057785;28;20035;-62
2021/06/11 09:13:40;;;;;;;;;;;;;;;22.74;57.30;101916.34;5056489;28;20044;-63
2021/06/11 09:16:11;;;;;;;32.60;20.95;;;;;;;22.54;60.47;101915.13;5058370;28;20009;-62
2021/06/11 09:18:50;;;;;;;39.33;24.83;;;;;;;22.56;59.73;101907.88;5058734;28;20123;-62
2021/06/11 09:21:32;;;;;;;35.03;22.17;;;;;;;22.75;58.56;101910.91;5058694;28;20136;-65
2021/06/11 09:24:43;;;;;;;38.08;24.13;;;;;;;22.76;57.62;101909.97;5065250;28;20145;-61
2021/06/11 09:26:58;;;;;;;37.78;23.75;;;;;;;22.86;57.30;101909.69;5063842;28;20036;-61
2021/06/11 09:29:28;;;;;;;36.25;22.40;;;;;;;23.19;57.88;101898.81;5063722;28;20029;-62
2021/06/11 09:32:11;;;;;;;32.65;18.92;;;;;;;23.48;55.26;101905.97;5054607;28;20025;-63
2021/06/11 09:34:36;;;;;;;35.65;20.75;;;;;;;23.84;54.13;101902.97;5060952;28;20094;-62
2021/06/11 09:37:08;;;;;;;35.50;21.00;;;;;;;24.11;53.84;101903.81;5067383;28;20029;-61
2021/06/11 09:40:05;;;;;;;33.05;16.75;;;;;;;24.41;52.89;101900.06;5061081;28;20041;-61
2021/06/11 09:42:33;;;;;;;24.95;10.15;;;;;;;23.73;49.84;101908.72;5071165;28;20047;-62
2021/06/11 09:45:01;;;;;;;26.98;12.57;;;;;;;23.90;51.64;101908.16;5073690;28;20507;-63
2021/06/11 09:47:38;;;;;;;28.73;14.05;;;;;;;24.35;51.93;101899.34;5072582;28;20037;-63
2021/06/11 09:50:10;;;;;;;23.50;8.82;;;;;;;24.40;48.59;101892.91;5073159;28;20049;-63
2021/06/11 09:52:56;;;;;;;26.40;12.02;;;;;;;24.84;48.82;101890.34;5070635;28;20479;-63
2021/06/11 09:55:24;;;;;;;29.38;15.95;;;;;;;24.96;47.93;101892.56;5070450;28;20036;-64
2021/06/11 09:58:08;;;;;;;34.22;19.08;;;;;;;24.85;49.56;101902.91;5071954;28;20029;-64
2021/06/11 10:00:36;;;;;;;32.60;16.60;;;;;;;24.71;50.42;101898.03;5073962;28;20044;-69
2021/06/11 10:03:02;;;;;;;33.05;16.77;;;;;;;25.10;49.51;101892.00;5072388;28;20119;-64
2021/06/11 10:05:28;;;;;;;29.83;14.13;;;;;;;25.92;47.11;101889.50;5073069;28;20040;-63
2021/06/11 10:07:54;;;;;;;25.13;10.80;;;;;;;27.11;41.42;101894.03;5073458;28;20032;-64
2021/06/11 10:10:19;;;;;;;28.70;13.68;;;;;;;28.31;40.41;101885.22;5080018;28;20048;-64
2021/06/11 10:12:45;;;;;;;28.35;14.68;;;;;;;29.18;37.76;101892.19;5065782;28;20040;-63
2021/06/11 10:15:13;;;;;;;28.05;13.43;;;;;;;30.41;36.42;101891.22;5083068;28;20025;-63
2021/06/11 10:17:41;;;;;;;31.23;16.08;;;;;;;30.24;34.80;101890.41;5083451;28;20036;-64
2021/06/11 10:20:08;;;;;;;31.00;16.42;;;;;;;30.53;34.96;101885.00;5062823;28;20117;-64
2021/06/11 10:22:33;;;;;;;28.67;13.70;;;;;;;30.35;33.96;101892.47;5066318;28;20383;-64
2021/06/11 10:24:59;;;;;;;28.08;11.93;;;;;;;30.65;33.91;101888.78;5064199;28;20025;-64
2021/06/11 10:27:24;;;;;;;25.63;10.73;;;;;;;31.44;31.34;101886.34;5067097;28;20482;-64
2021/06/11 10:29:50;;;;;;;24.08;8.98;;;;;;;31.67;31.20;101886.69;5063994;28;20353;-69
2021/06/11 10:32:16;;;;;;;23.20;8.20;;;;;;;31.48;31.20;101890.63;5066437;28;20025;-68
2021/06/11 10:34:56;;;;;;;24.13;8.63;;;;;;;32.31;32.63;101886.78;5066275;28;20480;-69
2021/06/11 10:37:38;;;;;;;28.90;12.35;;;;;;;32.00;31.85;101877.13;5063413;28;20029;-68
2021/06/11 10:40:13;;;;;;;28.73;13.07;;;;;;;32.12;31.13;101877.13;5060458;28;20029;-69
2021/06/11 10:42:39;;;;;;;30.40;13.52;;;;;;;32.14;31.12;101860.63;5064835;28;20483;-69
2021/06/11 10:45:05;;;;;;;26.65;11.20;;;;;;;32.80;29.08;101868.66;5064599;28;20021;-69
2021/06/11 10:47:33;;;;;;;27.13;10.40;;;;;;;33.27;30.25;101864.22;5066113;28;20017;-69
2021/06/11 10:50:01;;;;;;;26.98;10.10;;;;;;;33.42;29.72;101873.16;5061585;28;20041;-70
2021/06/11 10:52:53;;;;;;;30.35;12.27;;;;;;;33.29;30.28;101872.31;5055082;28;20036;-68
2021/06/11 10:55:18;;;;;;;26.23;10.65;;;;;;;34.41;27.65;101859.94;5059262;28;20471;-67
2021/06/11 10:57:52;;;;;;;24.85;9.43;;;;;;;35.22;27.60;101870.69;5065242;28;20085;-67
2021/06/11 11:00:27;;;;;;;22.77;9.10;;;;;;;34.35;28.38;101861.34;5057023;28;20395;-67
2021/06/11 11:02:58;;;;;;;25.30;9.82;;;;;;;34.37;26.53;101855.72;5063152;28;20046;-65
2021/06/11 11:05:29;;;;;;;26.42;11.68;;;;;;;33.65;28.98;101859.53;5064342;28;20111;-66
2021/06/11 11:07:55;;;;;;;27.63;11.88;;;;;;;33.31;29.87;101849.31;5065985;28;20028;-69
2021/06/11 11:10:47;;;;;;;27.77;11.18;;;;;;;34.35;27.72;101854.94;5060640;28;20017;-70
2021/06/11 11:13:19;;;;;;;27.77;10.57;;;;;;;34.18;28.00;101851.69;5064363;28;20487;-63